Time;durP1;ratioP1;P1;durP2;ratioP2;P2;SDS_P1;SDS_P2;PMS_P1;PMS_P2;Temp;Humidity;BMP_temperature;BMP_pressure;BME280_temperature;BME280_humidity;BME280_pressure;Samples;Min_cycle;Max_cycle;Signal;HPM_P1;HPM_P2
2021/01/26 00:01:00;;;;;;;23.50;20.10;;;-0.50;99.90;;;;;;5054615;28;20456;-51
2021/01/26 00:03:26;;;;;;;22.20;19.83;;;-0.40;99.90;;;;;;5055443;28;20762;-49
2021/01/26 00:05:52;;;;;;;23.13;20.63;;;-0.40;99.90;;;;;;5055841;28;20258;-47
2021/01/26 00:08:18;;;;;;;24.80;20.60;;;-0.40;99.90;;;;;;5069908;28;20289;-46
2021/01/26 00:10:44;;;;;;;24.47;19.53;;;-0.40;99.90;;;;;;5071555;28;20946;-48
2021/01/26 00:13:10;;;;;;;22.40;20.00;;;-0.30;99.90;;;;;;5063818;28;20943;-47
2021/01/26 00:15:36;;;;;;;24.67;20.83;;;-0.30;99.90;;;;;;5066852;28;20544;-52
2021/01/26 00:18:02;;;;;;;24.40;20.57;;;-0.20;99.90;;;;;;5055124;28;20248;-47
2021/01/26 00:20:28;;;;;;;23.73;19.77;;;-0.10;99.90;;;;;;5055546;28;20528;-47
2021/01/26 00:22:54;;;;;;;23.63;20.33;;;0.00;99.90;;;;;;5061599;28;20499;-47
2021/01/26 00:25:24;;;;;;;22.63;19.47;;;0.00;99.90;;;;;;5055360;28;20189;-48
2021/01/26 00:27:51;;;;;;;23.23;19.67;;;0.10;99.90;;;;;;5055441;28;20410;-47
2021/01/26 00:30:23;;;;;;;24.03;19.90;;;0.10;99.90;;;;;;5056023;28;20564;-48
2021/01/26 00:32:49;;;;;;;23.23;20.20;;;0.10;99.90;;;;;;5055870;28;20456;-47
2021/01/26 00:35:17;;;;;;;24.10;19.77;;;0.10;99.90;;;;;;5055944;28;20821;-48
2021/01/26 00:37:43;;;;;;;23.63;20.20;;;0.20;99.90;;;;;;5055434;28;20506;-53
2021/01/26 00:40:09;;;;;;;21.80;19.10;;;0.20;99.90;;;;;;5055299;28;20532;-47
2021/01/26 00:42:35;;;;;;;22.23;19.67;;;0.20;99.90;;;;;;5055772;28;20194;-47
2021/01/26 00:45:02;;;;;;;24.17;19.30;;;0.10;99.90;;;;;;5056066;28;20417;-48
2021/01/26 00:47:28;;;;;;;24.80;20.63;;;0.20;99.90;;;;;;5055049;28;20179;-52
2021/01/26 00:49:53;;;;;;;22.57;19.00;;;0.20;99.90;;;;;;5054927;28;20444;-48
2021/01/26 00:52:19;;;;;;;21.73;18.97;;;0.20;99.90;;;;;;5058557;28;20175;-47
2021/01/26 00:54:45;;;;;;;21.10;18.40;;;0.10;99.90;;;;;;5064415;28;20261;-51
2021/01/26 00:57:10;;;;;;;23.27;19.90;;;0.10;99.90;;;;;;5062030;28;20210;-47
2021/01/26 00:59:36;;;;;;;23.07;19.67;;;0.10;99.90;;;;;;5054427;28;20744;-47
2021/01/26 01:02:02;;;;;;;21.37;18.53;;;0.10;99.90;;;;;;5055866;28;20756;-48
2021/01/26 01:04:28;;;;;;;23.60;20.20;;;0.20;99.90;;;;;;5055592;28;20175;-47
2021/01/26 01:06:53;;;;;;;25.37;20.90;;;0.20;99.90;;;;;;5054596;28;20472;-48
2021/01/26 01:09:19;;;;;;;22.27;19.17;;;0.20;99.90;;;;;;5054060;28;20285;-50
2021/01/26 01:11:45;;;;;;;27.03;22.47;;;0.20;99.90;;;;;;5054432;28;20214;-47
2021/01/26 01:14:11;;;;;;;26.77;21.00;;;0.10;99.90;;;;;;5055778;28;20661;-47
2021/01/26 01:16:36;;;;;;;24.27;20.30;;;0.00;99.90;;;;;;5069395;28;20413;-48
2021/01/26 01:19:02;;;;;;;23.40;19.47;;;0.00;99.90;;;;;;5053544;28;20210;-48
2021/01/26 01:21:28;;;;;;;23.00;19.23;;;0.00;99.90;;;;;;5056111;28;20250;-48
2021/01/26 01:23:53;;;;;;;23.70;20.63;;;0.00;99.90;;;;;;5068614;28;20186;-50
2021/01/26 01:26:19;;;;;;;24.90;19.93;;;0.00;99.90;;;;;;5060639;28;20195;-49
2021/01/26 01:28:45;;;;;;;24.10;19.90;;;0.00;99.90;;;;;;5054501;28;20705;-47
2021/01/26 01:31:10;;;;;;;24.03;19.93;;;0.10;99.90;;;;;;5052872;28;20253;-47
2021/01/26 01:33:36;;;;;;;23.97;19.87;;;0.10;99.90;;;;;;5067705;28;20186;-48
2021/01/26 01:36:01;;;;;;;24.20;20.40;;;0.20;99.90;;;;;;5057810;28;20171;-46
2021/01/26 01:38:27;;;;;;;23.93;20.13;;;0.20;99.90;;;;;;5058103;28;20609;-47
2021/01/26 01:40:53;;;;;;;26.07;20.93;;;0.20;99.90;;;;;;5067247;28;20219;-46
2021/01/26 01:43:20;;;;;;;24.40;19.93;;;0.10;99.90;;;;;;5077422;28;20214;-48
2021/01/26 01:45:45;;;;;;;25.50;19.77;;;0.20;99.90;;;;;;5078490;28;20500;-50
2021/01/26 01:48:19;;;;;;;25.93;21.53;;;0.20;99.90;;;;;;5070636;28;20464;-47
2021/01/26 01:50:54;;;;;;;29.03;22.13;;;0.20;99.90;;;;;;5057091;28;20198;-50
2021/01/26 01:53:25;;;;;;;26.63;21.13;;;0.20;99.90;;;;;;5067622;28;20405;-48
2021/01/26 01:56:04;;;;;;;27.27;22.27;;;0.20;99.90;;;;;;5058693;28;20497;-49
2021/01/26 01:58:36;;;;;;;28.50;23.30;;;0.10;99.90;;;;;;5057245;28;20421;-49
2021/01/26 02:01:12;;;;;;;32.20;24.73;;;0.10;99.90;;;;;;5056985;28;20409;-47
2021/01/26 02:03:42;;;;;;;30.10;23.93;;;0.10;99.90;;;;;;5057170;28;20934;-50
2021/01/26 02:06:10;;;;;;;30.27;23.27;;;0.00;99.90;;;;;;5058564;28;20416;-48
2021/01/26 02:08:43;;;;;;;30.77;24.03;;;0.00;99.90;;;;;;5058351;28;20480;-49
2021/01/26 02:11:08;;;;;;;29.30;24.10;;;0.00;99.90;;;;;;5060522;28;20477;-49
2021/01/26 02:13:34;;;;;;;29.53;24.57;;;-0.10;99.90;;;;;;5059065;28;20772;-50
2021/01/26 02:16:03;;;;;;;32.00;25.73;;;-0.10;99.90;;;;;;5056261;28;20254;-48
2021/01/26 02:18:35;;;;;;;31.13;24.70;;;0.00;99.90;;;;;;5057484;28;20655;-49
2021/01/26 02:21:32;;;;;;;31.63;24.93;;;-0.10;99.90;;;;;;5057401;28;20460;-47
2021/01/26 02:24:30;;;;;;;34.53;25.90;;;-0.10;99.90;;;;;;5073464;28;21005;-48
2021/01/26 02:27:33;;;;;;;33.50;26.40;;;0.00;99.90;;;;;;5058083;28;20409;-46
2021/01/26 02:30:28;;;;;;;37.50;26.03;;;0.00;99.90;;;;;;5056678;28;20479;-48
2021/01/26 02:33:18;;;;;;;33.40;26.13;;;0.10;99.90;;;;;;5057795;28;20511;-50
2021/01/26 02:36:21;;;;;;;32.50;25.97;;;0.10;99.90;;;;;;5057775;28;20441;-48
2021/01/26 02:39:21;;;;;;;31.17;25.03;;;0.20;99.90;;;;;;5057028;28;20988;-47
2021/01/26 02:42:12;;;;;;;33.57;25.43;;;0.30;99.90;;;;;;5056602;28;20402;-48
2021/01/26 02:45:11;;;;;;;33.00;26.10;;;0.30;99.90;;;;;;5056429;28;20798;-51
2021/01/26 02:48:14;;;;;;;34.43;25.60;;;0.40;99.90;;;;;;5036710;28;20978;-49
2021/01/26 02:50:58;;;;;;;33.73;24.97;;;0.50;99.90;;;;;;5056865;28;20449;-50
2021/01/26 02:53:26;;;;;;;31.67;24.80;;;0.60;99.90;;;;;;5057253;28;20543;-48
2021/01/26 02:55:57;;;;;;;32.33;25.50;;;0.60;99.90;;;;;;5057945;28;20402;-47
2021/01/26 02:58:46;;;;;;;32.53;24.97;;;0.70;99.90;;;;;;5057186;28;20429;-47
2021/01/26 03:01:13;;;;;;;32.70;25.17;;;0.70;99.90;;;;;;5053268;28;20440;-47
2021/01/26 03:03:47;;;;;;;32.23;25.07;;;0.80;99.90;;;;;;5056928;28;20483;-48
2021/01/26 03:06:18;;;;;;;34.53;26.47;;;0.80;99.90;;;;;;5055942;28;20416;-47
2021/01/26 03:08:59;;;;;;;31.97;25.53;;;0.80;99.90;;;;;;5057142;28;20448;-52
2021/01/26 03:11:31;;;;;;;31.40;24.53;;;0.90;99.90;;;;;;5056541;28;20511;-53
2021/01/26 03:14:15;;;;;;;32.27;25.37;;;0.80;99.90;;;;;;5057511;28;20473;-50
2021/01/26 03:16:43;;;;;;;32.70;24.27;;;0.60;99.90;;;;;;5056357;28;20441;-47
2021/01/26 03:19:13;;;;;;;31.23;23.93;;;0.60;99.90;;;;;;5056602;28;20433;-47
2021/01/26 03:21:43;;;;;;;34.70;25.83;;;0.60;99.90;;;;;;5055846;28;20471;-46
2021/01/26 03:24:14;;;;;;;32.47;25.60;;;0.60;99.90;;;;;;5056548;28;20429;-50
2021/01/26 03:26:40;;;;;;;32.63;25.90;;;0.50;99.90;;;;;;5055540;28;20410;-52
2021/01/26 03:29:08;;;;;;;31.77;25.33;;;0.40;99.90;;;;;;5056806;28;20538;-47
2021/01/26 03:31:49;;;;;;;33.50;25.47;;;0.30;99.90;;;;;;5069228;28;20448;-47
2021/01/26 03:34:14;;;;;;;31.60;24.90;;;0.10;99.90;;;;;;5077736;28;20808;-46
2021/01/26 03:36:41;;;;;;;32.87;25.10;;;0.00;99.90;;;;;;5075689;28;20918;-46
2021/01/26 03:39:07;;;;;;;36.87;28.63;;;-0.10;99.90;;;;;;5075735;28;20194;-49
2021/01/26 03:41:33;;;;;;;33.17;26.07;;;-0.10;99.90;;;;;;5075175;28;20547;-50
2021/01/26 03:43:59;;;;;;;35.67;25.60;;;-0.10;99.90;;;;;;5076790;28;20437;-47
2021/01/26 03:46:43;;;;;;;32.50;25.90;;;-0.10;99.90;;;;;;5076218;28;20178;-48
2021/01/26 03:49:42;;;;;;;32.20;25.63;;;-0.10;99.90;;;;;;5076840;28;20202;-48
2021/01/26 03:52:51;;;;;;;30.77;24.47;;;0.00;99.90;;;;;;5074521;28;20548;-47
2021/01/26 03:55:24;;;;;;;31.23;24.87;;;0.00;99.90;;;;;;5074525;28;20400;-47
2021/01/26 03:57:53;;;;;;;33.70;26.20;;;0.00;99.90;;;;;;5076207;28;20400;-47
2021/01/26 04:00:29;;;;;;;30.60;24.57;;;0.00;99.90;;;;;;5074782;28;20411;-50
2021/01/26 04:03:15;;;;;;;30.47;25.03;;;0.00;99.90;;;;;;5075666;28;20475;-47
2021/01/26 04:06:05;;;;;;;31.43;24.40;;;0.00;99.90;;;;;;5075405;28;20579;-47
2021/01/26 04:08:47;;;;;;;31.27;24.80;;;0.10;99.90;;;;;;5074451;28;21010;-47
2021/01/26 04:11:22;;;;;;;31.00;25.63;;;0.10;99.90;;;;;;5075348;28;20460;-47
2021/01/26 04:14:06;;;;;;;33.33;25.67;;;0.10;99.90;;;;;;5074386;28;20405;-49
2021/01/26 04:16:41;;;;;;;29.30;23.33;;;0.20;99.90;;;;;;5075050;28;20432;-48
2021/01/26 04:19:10;;;;;;;33.13;24.83;;;0.20;99.90;;;;;;5074159;28;20420;-52
2021/01/26 04:21:38;;;;;;;29.23;22.97;;;0.20;99.90;;;;;;5075102;28;20396;-48
2021/01/26 04:24:04;;;;;;;27.93;23.13;;;0.20;99.90;;;;;;5074831;28;20458;-47
2021/01/26 04:26:33;;;;;;;29.80;23.27;;;0.10;99.90;;;;;;5074875;28;20416;-49
2021/01/26 04:28:58;;;;;;;30.53;23.73;;;0.10;99.90;;;;;;5074775;28;20455;-48
2021/01/26 04:31:26;;;;;;;28.20;23.10;;;0.00;99.90;;;;;;5074600;28;20456;-47
2021/01/26 04:33:51;;;;;;;29.67;22.73;;;0.00;99.90;;;;;;5074868;28;20224;-48
2021/01/26 04:36:20;;;;;;;27.67;22.40;;;0.00;99.90;;;;;;5075658;28;20413;-49
2021/01/26 04:38:46;;;;;;;28.30;22.70;;;0.00;99.90;;;;;;5071972;28;20663;-47
2021/01/26 04:41:30;;;;;;;28.53;22.27;;;0.10;99.90;;;;;;5053851;28;20445;-47
2021/01/26 04:44:14;;;;;;;25.77;21.07;;;0.00;99.90;;;;;;5065333;28;20405;-49
2021/01/26 04:46:53;;;;;;;26.57;21.07;;;0.00;99.90;;;;;;5074851;28;20412;-49
2021/01/26 04:49:43;;;;;;;25.77;20.07;;;0.00;99.90;;;;;;5075490;28;20464;-46
2021/01/26 04:52:45;;;;;;;24.80;20.13;;;0.00;99.90;;;;;;5074026;28;20491;-48
2021/01/26 04:55:39;;;;;;;26.37;20.10;;;0.10;99.90;;;;;;5074422;28;20408;-47
2021/01/26 04:58:28;;;;;;;26.07;19.67;;;0.20;99.90;;;;;;5073719;28;20726;-51
2021/01/26 05:01:14;;;;;;;26.83;21.30;;;0.20;99.90;;;;;;5075140;28;20404;-47
2021/01/26 05:03:49;;;;;;;25.00;19.87;;;0.20;99.90;;;;;;5074690;28;20919;-47
2021/01/26 05:06:18;;;;;;;23.37;18.60;;;0.20;99.90;;;;;;5074357;28;20408;-50
2021/01/26 05:08:49;;;;;;;26.80;20.90;;;0.20;99.90;;;;;;5074937;28;20428;-51
2021/01/26 05:11:19;;;;;;;26.23;21.23;;;0.20;99.90;;;;;;5073675;28;20485;-51
2021/01/26 05:13:49;;;;;;;28.87;21.47;;;0.20;99.90;;;;;;5074294;28;20401;-50
2021/01/26 05:16:27;;;;;;;24.33;19.90;;;0.20;99.90;;;;;;5074723;28;20411;-48
2021/01/26 05:19:02;;;;;;;25.90;20.97;;;0.20;99.90;;;;;;5076669;28;20762;-49
2021/01/26 05:21:33;;;;;;;27.07;20.27;;;0.30;99.90;;;;;;5078350;28;20408;-49
2021/01/26 05:24:06;;;;;;;26.60;21.03;;;0.30;99.90;;;;;;5075662;28;20408;-50
2021/01/26 05:26:32;;;;;;;25.73;20.90;;;0.20;99.90;;;;;;5073641;28;20761;-50
2021/01/26 05:28:57;;;;;;;28.63;22.10;;;0.20;99.90;;;;;;5075258;28;20503;-48
2021/01/26 05:31:27;;;;;;;24.60;19.13;;;0.20;99.90;;;;;;5075259;28;20290;-48
2021/01/26 05:34:12;;;;;;;26.20;19.63;;;0.10;99.90;;;;;;5066225;28;20573;-48
2021/01/26 05:36:41;;;;;;;23.90;19.20;;;0.10;99.90;;;;;;5067377;28;20402;-48
2021/01/26 05:39:13;;;;;;;24.07;19.53;;;0.10;99.90;;;;;;5061878;28;20446;-48
2021/01/26 05:41:39;;;;;;;23.70;19.33;;;0.10;99.90;;;;;;5065611;28;20416;-47
2021/01/26 05:44:05;;;;;;;24.20;19.20;;;0.10;99.90;;;;;;5064418;28;20404;-50
2021/01/26 05:46:37;;;;;;;23.43;19.23;;;0.10;99.90;;;;;;5063688;28;20183;-48
2021/01/26 05:49:03;;;;;;;22.50;18.40;;;0.20;99.90;;;;;;5064572;28;20214;-47
2021/01/26 05:51:29;;;;;;;23.90;19.40;;;0.20;99.90;;;;;;5069303;28;20562;-47
2021/01/26 05:54:00;;;;;;;24.30;19.73;;;0.20;99.90;;;;;;5063445;28;20715;-49
2021/01/26 05:56:28;;;;;;;25.83;20.20;;;0.30;99.90;;;;;;5063022;28;20490;-48
2021/01/26 05:58:54;;;;;;;24.67;19.70;;;0.30;99.90;;;;;;5064435;28;20448;-52
2021/01/26 06:01:22;;;;;;;25.90;19.63;;;0.40;99.90;;;;;;5057424;28;20436;-47
2021/01/26 06:04:12;;;;;;;27.77;21.17;;;0.40;99.90;;;;;;5065046;28;20193;-47
2021/01/26 06:07:05;;;;;;;26.70;21.10;;;0.30;99.90;;;;;;5072832;28;20401;-47
2021/01/26 06:09:41;;;;;;;29.27;21.33;;;0.10;99.90;;;;;;4992660;28;20448;-48
2021/01/26 06:12:10;;;;;;;31.30;22.87;;;0.10;99.90;;;;;;4992220;28;20809;-51
2021/01/26 06:14:37;;;;;;;29.40;23.37;;;0.00;99.90;;;;;;4976174;28;20413;-47
2021/01/26 06:17:22;;;;;;;29.20;22.77;;;-0.10;99.90;;;;;;4992265;28;20427;-46
2021/01/26 06:20:06;;;;;;;29.57;23.13;;;-0.10;99.90;;;;;;4996487;28;20960;-48
2021/01/26 06:22:32;;;;;;;33.13;23.13;;;-0.10;99.90;;;;;;4996841;28;20416;-47
2021/01/26 06:25:02;;;;;;;31.90;23.67;;;-0.20;99.90;;;;;;4996467;28;20412;-48
2021/01/26 06:27:42;;;;;;;29.73;21.63;;;-0.10;99.90;;;;;;4995982;28;20193;-48
2021/01/26 06:30:50;;;;;;;29.47;23.23;;;-0.10;99.90;;;;;;4995847;28;20444;-48
2021/01/26 06:33:46;;;;;;;30.27;22.33;;;-0.10;99.90;;;;;;4995824;28;20461;-51
2021/01/26 06:36:12;;;;;;;29.83;21.73;;;0.00;99.90;;;;;;4996880;28;20415;-47
2021/01/26 06:38:40;;;;;;;29.20;22.60;;;0.10;99.90;;;;;;4995774;28;20531;-48
2021/01/26 06:41:38;;;;;;;30.20;22.33;;;0.10;99.90;;;;;;4995253;28;20227;-48
2021/01/26 06:44:32;;;;;;;28.97;21.33;;;0.10;99.90;;;;;;4995132;28;20990;-48
2021/01/26 06:47:22;;;;;;;28.90;22.07;;;0.20;99.90;;;;;;5057641;28;20425;-48
2021/01/26 06:50:06;;;;;;;29.70;21.47;;;0.20;99.90;;;;;;5077460;28;20440;-47
2021/01/26 06:53:08;;;;;;;30.43;22.00;;;0.20;99.90;;;;;;5078167;28;20466;-48
2021/01/26 06:56:27;;;;;;;29.33;21.83;;;0.20;99.90;;;;;;5076538;28;20415;-48
2021/01/26 06:59:16;;;;;;;27.67;20.93;;;0.30;99.90;;;;;;5033741;28;20512;-47
2021/01/26 07:02:12;;;;;;;24.60;19.10;;;0.40;99.90;;;;;;5074021;28;20412;-48
2021/01/26 07:05:09;;;;;;;24.80;19.33;;;0.50;99.90;;;;;;5078259;28;20443;-50
2021/01/26 07:07:53;;;;;;;22.60;17.37;;;0.50;99.90;;;;;;5076497;28;20409;-48
2021/01/26 07:10:43;;;;;;;24.03;17.77;;;0.40;99.90;;;;;;5076922;28;20547;-48
2021/01/26 07:13:24;;;;;;;22.50;16.67;;;0.40;99.90;;;;;;5076533;28;20403;-49
2021/01/26 07:16:10;;;;;;;21.93;16.83;;;0.30;99.90;;;;;;5076547;28;20412;-47
2021/01/26 07:19:11;;;;;;;21.87;16.57;;;0.30;99.90;;;;;;5076492;28;20417;-47
2021/01/26 07:21:59;;;;;;;19.30;15.17;;;0.30;99.90;;;;;;5036304;28;20412;-51
2021/01/26 07:24:54;;;;;;;18.67;14.53;;;0.30;99.90;;;;;;5076257;28;20467;-47
2021/01/26 07:27:57;;;;;;;20.63;14.17;;;0.40;99.90;;;;;;5070066;28;20420;-47
2021/01/26 07:30:31;;;;;;;19.87;14.83;;;0.50;99.90;;;;;;5078821;28;20474;-48
2021/01/26 07:33:01;;;;;;;16.90;13.33;;;0.60;99.90;;;;;;5076863;28;20432;-47
2021/01/26 07:36:10;;;;;;;15.80;12.47;;;0.60;99.90;;;;;;5076159;28;20397;-46
2021/01/26 07:38:48;;;;;;;19.07;14.13;;;0.60;99.90;;;;;;5076027;28;20450;-46
2021/01/26 07:41:40;;;;;;;16.53;13.17;;;0.60;99.90;;;;;;5075794;28;20419;-47
2021/01/26 07:44:14;;;;;;;17.23;13.33;;;0.60;99.90;;;;;;5075387;28;20424;-47
2021/01/26 07:46:57;;;;;;;17.23;13.17;;;0.60;99.90;;;;;;5075969;28;20491;-48
2021/01/26 07:49:33;;;;;;;17.87;13.53;;;0.60;99.90;;;;;;5075947;28;20436;-47
2021/01/26 07:52:02;;;;;;;17.40;13.17;;;0.50;99.90;;;;;;5075561;28;20490;-47
2021/01/26 07:55:09;;;;;;;15.70;12.63;;;0.50;99.90;;;;;;5075382;28;20408;-48
2021/01/26 07:58:01;;;;;;;17.13;13.40;;;0.40;99.90;;;;;;5074823;28;20898;-51
2021/01/26 08:00:29;;;;;;;19.10;14.17;;;0.30;99.90;;;;;;5075487;28;20405;-51
2021/01/26 08:02:58;;;;;;;17.50;14.50;;;0.30;99.90;;;;;;5067498;28;21033;-50
2021/01/26 08:05:41;;;;;;;18.13;14.60;;;0.30;99.90;;;;;;5076339;28;20425;-48
2021/01/26 08:08:14;;;;;;;17.73;14.17;;;0.40;99.90;;;;;;5070367;28;20420;-53
2021/01/26 08:10:40;;;;;;;19.93;15.30;;;0.40;99.90;;;;;;5067392;28;20458;-51
2021/01/26 08:13:06;;;;;;;17.70;14.17;;;0.40;99.90;;;;;;5066436;28;20405;-51
2021/01/26 08:15:35;;;;;;;19.67;15.60;;;0.40;99.90;;;;;;5068213;28;20209;-48
2021/01/26 08:18:20;;;;;;;19.87;15.33;;;0.50;99.90;;;;;;5063743;28;20179;-48
2021/01/26 08:20:46;;;;;;;18.90;14.77;;;0.40;99.90;;;;;;5065396;28;20531;-50
2021/01/26 08:23:28;;;;;;;19.40;14.60;;;0.30;99.90;;;;;;5063806;28;20559;-49
2021/01/26 08:25:55;;;;;;;16.77;13.77;;;0.30;99.90;;;;;;5074160;28;20197;-52
2021/01/26 08:28:39;;;;;;;20.03;14.77;;;0.40;99.90;;;;;;5061025;28;20442;-51
2021/01/26 08:31:25;;;;;;;18.63;14.97;;;0.40;99.90;;;;;;5070553;28;20464;-52
2021/01/26 08:33:53;;;;;;;18.90;14.23;;;0.40;99.90;;;;;;5066662;28;20427;-52
2021/01/26 08:36:37;;;;;;;21.23;16.33;;;0.30;99.90;;;;;;5074931;28;20493;-47
2021/01/26 08:39:23;;;;;;;20.77;15.47;;;0.20;99.90;;;;;;5073831;28;20852;-50
2021/01/26 08:41:51;;;;;;;21.27;16.13;;;0.20;99.90;;;;;;5058987;28;20441;-51
2021/01/26 08:44:22;;;;;;;21.90;15.90;;;0.10;99.90;;;;;;5064070;28;20455;-49
2021/01/26 08:46:50;;;;;;;21.93;15.37;;;0.10;99.90;;;;;;5073954;28;20468;-48
2021/01/26 08:49:36;;;;;;;21.27;16.20;;;0.00;99.90;;;;;;5075210;28;20428;-49
2021/01/26 08:52:22;;;;;;;20.83;17.03;;;-0.10;99.90;;;;;;5066576;28;20997;-51
2021/01/26 08:54:53;;;;;;;21.67;16.33;;;-0.10;99.90;;;;;;5062849;28;20452;-51
2021/01/26 08:57:28;;;;;;;21.53;16.90;;;-0.10;99.90;;;;;;5053498;28;20428;-50
2021/01/26 08:59:56;;;;;;;21.13;16.20;;;0.00;99.90;;;;;;5060020;28;20449;-49
2021/01/26 09:02:45;;;;;;;20.80;15.87;;;0.00;99.90;;;;;;5054004;28;20466;-50
2021/01/26 09:05:31;;;;;;;21.33;16.00;;;0.00;99.90;;;;;;5063134;28;20436;-48
2021/01/26 09:07:57;;;;;;;18.83;14.90;;;0.00;99.90;;;;;;5066326;28;20429;-49
2021/01/26 09:10:46;;;;;;;18.97;15.00;;;0.10;99.90;;;;;;5056927;28;20867;-47
2021/01/26 09:13:34;;;;;;;22.83;16.20;;;0.20;99.90;;;;;;5054162;28;20224;-49
2021/01/26 09:16:14;;;;;;;19.93;15.43;;;0.20;99.90;;;;;;5060286;28;20460;-51
2021/01/26 09:18:40;;;;;;;20.13;15.40;;;0.30;99.90;;;;;;5069483;28;20456;-51
2021/01/26 09:21:13;;;;;;;20.00;15.33;;;0.40;99.90;;;;;;5064093;28;20412;-49
2021/01/26 09:23:40;;;;;;;19.27;14.57;;;0.40;99.90;;;;;;5072707;28;20188;-48
2021/01/26 09:26:17;;;;;;;22.90;16.30;;;0.40;99.90;;;;;;5093029;28;20789;-52
2021/01/26 09:28:45;;;;;;;18.33;14.53;;;0.40;99.90;;;;;;5071641;28;20440;-49
2021/01/26 09:31:13;;;;;;;25.03;19.23;;;0.40;99.90;;;;;;5072180;28;20460;-50
2021/01/26 09:33:40;;;;;;;19.73;15.60;;;0.30;99.90;;;;;;5073497;28;20991;-47
2021/01/26 09:36:15;;;;;;;18.13;14.43;;;0.20;99.90;;;;;;5072674;28;20452;-48
2021/01/26 09:38:48;;;;;;;17.03;13.97;;;0.30;99.90;;;;;;5070700;28;20493;-46
2021/01/26 09:41:22;;;;;;;15.33;13.10;;;0.20;99.90;;;;;;5055234;28;20440;-49
2021/01/26 09:43:55;;;;;;;16.90;12.20;;;0.20;99.90;;;;;;5062262;28;20438;-51
2021/01/26 09:46:32;;;;;;;17.23;12.00;;;-0.10;99.90;;;;;;5072901;28;20486;-50
2021/01/26 09:49:07;;;;;;;14.10;11.43;;;-0.20;99.90;;;;;;5068211;28;21364;-50
2021/01/26 09:51:39;;;;;;;15.57;12.53;;;-0.30;99.90;;;;;;5053921;28;21032;-47
2021/01/26 09:54:10;;;;;;;14.77;11.77;;;-0.30;99.90;;;;;;5058642;28;20435;-48
2021/01/26 09:56:38;;;;;;;15.73;11.40;;;-0.10;99.90;;;;;;5073627;28;20416;-47
2021/01/26 09:59:06;;;;;;;13.83;10.13;;;-0.10;99.90;;;;;;5073760;28;20464;-46
2021/01/26 10:01:34;;;;;;;14.47;10.93;;;-0.10;99.90;;;;;;5065233;28;20412;-46
2021/01/26 10:04:05;;;;;;;13.53;10.97;;;-0.20;99.90;;;;;;5074019;28;21129;-46
2021/01/26 10:06:34;;;;;;;14.13;11.40;;;-0.20;99.90;;;;;;5089325;28;20591;-47
2021/01/26 10:09:23;;;;;;;14.33;11.07;;;-0.20;99.90;;;;;;5072978;28;20460;-49
2021/01/26 10:11:50;;;;;;;13.47;10.73;;;-0.10;99.90;;;;;;5067587;28;20463;-50
2021/01/26 10:14:22;;;;;;;13.10;10.03;;;-0.10;99.90;;;;;;5086240;28;20416;-49
2021/01/26 10:16:51;;;;;;;12.47;9.90;;;-0.10;99.90;;;;;;5087655;28;20420;-53
2021/01/26 10:19:26;;;;;;;15.97;11.23;;;-0.10;99.90;;;;;;5080722;28;20438;-52
2021/01/26 10:21:53;;;;;;;11.40;9.27;;;0.00;99.90;;;;;;5064490;28;20424;-49
2021/01/26 10:24:31;;;;;;;15.60;9.80;;;0.00;99.90;;;;;;5090997;28;20760;-52
2021/01/26 10:27:21;;;;;;;12.60;9.80;;;-0.10;99.90;;;;;;5075013;28;20412;-47
2021/01/26 10:29:47;;;;;;;12.77;9.47;;;-0.10;99.90;;;;;;5059971;28;20811;-50
2021/01/26 10:32:40;;;;;;;10.73;9.07;;;-0.10;99.90;;;;;;5066371;28;20521;-50
2021/01/26 10:35:36;;;;;;;12.97;10.40;;;-0.10;99.90;;;;;;5082330;28;20940;-50
2021/01/26 10:38:30;;;;;;;12.93;10.03;;;-0.10;99.90;;;;;;5084854;28;20429;-50
2021/01/26 10:41:09;;;;;;;13.00;9.03;;;-0.10;99.90;;;;;;5064686;28;20824;-47
2021/01/26 10:43:35;;;;;;;11.90;9.40;;;0.00;99.90;;;;;;5073573;28;20421;-49
2021/01/26 10:46:01;;;;;;;14.60;9.13;;;0.00;99.90;;;;;;5075138;28;20449;-51
2021/01/26 10:48:34;;;;;;;13.37;9.33;;;0.10;99.90;;;;;;5068299;28;20264;-47
2021/01/26 10:51:29;;;;;;;11.90;9.47;;;0.10;99.90;;;;;;5064401;28;20230;-49
2021/01/26 10:53:55;;;;;;;12.33;9.30;;;0.20;99.90;;;;;;5059158;28;20414;-47
2021/01/26 10:56:22;;;;;;;11.47;9.00;;;0.10;99.90;;;;;;5077027;28;20470;-48
2021/01/26 10:58:48;;;;;;;12.13;9.43;;;0.10;99.90;;;;;;5072147;28;20796;-48
2021/01/26 11:01:20;;;;;;;13.60;9.37;;;0.20;99.90;;;;;;5062534;28;20435;-48
2021/01/26 11:03:45;;;;;;;12.43;8.90;;;0.20;99.90;;;;;;5064863;28;20421;-49
2021/01/26 11:06:11;;;;;;;9.73;7.97;;;0.20;99.90;;;;;;5054794;28;20501;-48
2021/01/26 11:08:37;;;;;;;12.40;8.40;;;0.20;99.90;;;;;;5065780;28;20244;-48
2021/01/26 11:11:02;;;;;;;11.40;8.57;;;0.20;99.90;;;;;;5056242;28;20662;-49
2021/01/26 11:13:28;;;;;;;10.07;8.17;;;0.20;99.90;;;;;;5066234;28;20178;-49
2021/01/26 11:15:54;;;;;;;10.50;8.00;;;0.20;99.90;;;;;;5071720;28;20174;-51
2021/01/26 11:18:20;;;;;;;10.23;8.20;;;0.20;99.90;;;;;;5064885;28;20209;-47
2021/01/26 11:20:46;;;;;;;13.00;8.13;;;0.20;99.90;;;;;;5058124;28;20189;-54
2021/01/26 11:23:11;;;;;;;10.60;8.20;;;0.20;99.90;;;;;;5056373;28;20449;-48
2021/01/26 11:25:37;;;;;;;10.33;8.43;;;0.20;99.90;;;;;;5064129;28;20175;-50
2021/01/26 11:28:05;;;;;;;12.47;9.07;;;0.20;99.90;;;;;;5064879;28;20183;-50
2021/01/26 11:30:31;;;;;;;11.50;8.60;;;0.00;99.90;;;;;;5059200;28;20210;-49
2021/01/26 11:32:57;;;;;;;11.40;8.40;;;0.00;99.90;;;;;;5076539;28;20420;-54
2021/01/26 11:35:25;;;;;;;12.30;9.00;;;0.00;99.90;;;;;;5054782;28;20417;-52
2021/01/26 11:37:52;;;;;;;12.37;8.77;;;0.00;99.90;;;;;;5070651;28;20277;-52
2021/01/26 11:40:19;;;;;;;11.43;8.83;;;0.00;99.90;;;;;;5075473;28;20554;-49
2021/01/26 11:42:45;;;;;;;11.63;8.17;;;0.00;99.90;;;;;;5057461;28;20891;-51
2021/01/26 11:45:20;;;;;;;11.97;8.80;;;0.00;99.90;;;;;;5073503;28;20423;-50
2021/01/26 11:47:45;;;;;;;9.53;7.53;;;0.00;99.90;;;;;;5068293;28;20175;-50
2021/01/26 11:50:13;;;;;;;11.23;8.47;;;0.00;99.90;;;;;;5052763;28;20526;-52
2021/01/26 11:52:39;;;;;;;10.97;8.10;;;0.00;99.90;;;;;;5059322;28;20210;-48
2021/01/26 11:55:08;;;;;;;10.47;8.10;;;0.00;99.90;;;;;;5054659;28;20422;-48
2021/01/26 11:57:34;;;;;;;10.80;7.70;;;0.00;99.90;;;;;;5063129;28;20233;-48
2021/01/26 11:59:59;;;;;;;9.87;7.67;;;0.10;99.90;;;;;;5063851;28;20562;-48
2021/01/26 12:02:27;;;;;;;10.27;8.00;;;0.10;99.90;;;;;;5068562;28;20194;-50
2021/01/26 12:04:53;;;;;;;10.23;8.10;;;0.10;99.90;;;;;;5058713;28;20191;-48
2021/01/26 12:07:19;;;;;;;10.40;7.73;;;0.00;99.90;;;;;;5054374;28;20862;-50
2021/01/26 12:09:44;;;;;;;12.77;8.77;;;-0.10;99.90;;;;;;5072445;28;20241;-50
2021/01/26 12:12:10;;;;;;;11.87;8.67;;;0.00;99.90;;;;;;5070758;28;20293;-54
2021/01/26 12:14:35;;;;;;;10.10;8.03;;;0.00;99.90;;;;;;5073016;28;20265;-49
2021/01/26 12:17:01;;;;;;;10.17;8.33;;;0.00;99.90;;;;;;5072563;28;20209;-50
2021/01/26 12:19:28;;;;;;;10.63;8.17;;;0.00;99.90;;;;;;5072588;28;20205;-51
2021/01/26 12:21:54;;;;;;;8.73;7.17;;;0.00;99.90;;;;;;5073538;28;20182;-50
2021/01/26 12:24:20;;;;;;;9.80;7.70;;;0.00;99.90;;;;;;5071265;28;20429;-54
2021/01/26 12:26:46;;;;;;;11.20;8.00;;;0.00;99.90;;;;;;5072244;28;20761;-53
2021/01/26 12:29:11;;;;;;;12.13;7.63;;;0.00;99.90;;;;;;5072641;28;20198;-52
2021/01/26 12:31:37;;;;;;;10.93;7.27;;;0.10;99.90;;;;;;5073987;28;20206;-50
2021/01/26 12:34:03;;;;;;;8.93;7.27;;;0.10;99.90;;;;;;5073803;28;20181;-50
2021/01/26 12:36:28;;;;;;;11.10;7.83;;;0.10;99.90;;;;;;5074753;28;20197;-51
2021/01/26 12:38:54;;;;;;;8.97;7.07;;;0.10;99.90;;;;;;5094041;28;20217;-53
2021/01/26 12:41:20;;;;;;;8.87;7.37;;;0.20;99.90;;;;;;5072432;28;20189;-51
2021/01/26 12:43:46;;;;;;;9.67;7.07;;;0.30;99.90;;;;;;5072624;28;20179;-52
2021/01/26 12:46:12;;;;;;;9.40;7.10;;;0.30;99.90;;;;;;5073235;28;20424;-53
2021/01/26 12:48:38;;;;;;;8.20;6.47;;;0.30;99.90;;;;;;5073425;28;20202;-52
2021/01/26 12:51:03;;;;;;;8.80;6.70;;;0.40;99.90;;;;;;5073873;28;20201;-51
2021/01/26 12:53:29;;;;;;;7.03;6.33;;;0.30;99.90;;;;;;5073937;28;20425;-52
2021/01/26 12:55:55;;;;;;;7.90;6.20;;;0.30;99.90;;;;;;5073981;28;20517;-51
2021/01/26 12:58:20;;;;;;;8.67;5.60;;;0.30;99.90;;;;;;5073684;28;20199;-52
2021/01/26 13:00:46;;;;;;;8.57;5.63;;;0.20;99.90;;;;;;5065514;28;20202;-50
2021/01/26 13:03:12;;;;;;;7.27;5.87;;;0.30;99.90;;;;;;5068930;28;20189;-50
2021/01/26 13:05:37;;;;;;;7.73;5.77;;;0.30;99.90;;;;;;5073232;28;20417;-49
2021/01/26 13:08:03;;;;;;;6.47;5.33;;;0.30;99.90;;;;;;5072370;28;20178;-50
2021/01/26 13:10:28;;;;;;;8.40;5.90;;;0.40;99.90;;;;;;5072902;28;20317;-52
2021/01/26 13:12:55;;;;;;;7.27;5.60;;;0.40;99.90;;;;;;5072850;28;20166;-54